createdAt,value
2022-11-05T00:01:39.340Z,4.43
2022-11-05T00:05:00.737Z,5.12
2022-11-05T00:08:23.630Z,6.00
2022-11-05T00:11:46.139Z,5.30
2022-11-05T00:15:07.039Z,6.47
2022-11-05T00:18:09.516Z,4.90
2022-11-05T00:21:40.656Z,5.85
2022-11-05T00:25:01.580Z,5.47
2022-11-05T00:28:04.102Z,5.20
2022-11-05T00:31:09.926Z,6.37
2022-11-05T00:34:12.157Z,6.17
2022-11-05T00:37:14.676Z,6.05
2022-11-05T00:40:17.571Z,5.30
2022-11-05T00:43:38.561Z,4.68
2022-11-05T00:46:40.758Z,4.68
2022-11-05T00:49:43.247Z,4.80
2022-11-05T00:52:56.056Z,5.00
2022-11-05T00:55:58.629Z,4.40
2022-11-05T00:59:00.888Z,4.78
2022-11-05T01:02:03.493Z,3.87
2022-11-05T01:05:06.259Z,4.20
2022-11-05T01:08:09.867Z,4.30
2022-11-05T01:11:33.084Z,4.05
2022-11-05T01:14:36.133Z,3.72
2022-11-05T01:17:38.298Z,4.03
2022-11-05T01:20:40.955Z,3.70
2022-11-05T01:23:43.131Z,4.72
2022-11-05T01:26:45.614Z,4.55
2022-11-05T01:29:47.847Z,3.92
2022-11-05T01:32:50.540Z,4.62
2022-11-05T01:35:53.461Z,4.13
2022-11-05T01:38:55.997Z,3.75
2022-11-05T01:41:58.873Z,4.60
2022-11-05T01:45:12.467Z,4.50
2022-11-05T01:48:18.655Z,4.60
2022-11-05T01:51:26.113Z,6.10
2022-11-05T01:54:31.927Z,3.67
2022-11-05T01:57:34.641Z,4.82
2022-11-05T02:00:40.954Z,4.20
2022-11-05T02:03:46.694Z,3.87
2022-11-05T02:06:49.191Z,3.40
2022-11-05T02:10:01.924Z,3.45
2022-11-05T02:13:04.540Z,3.75
2022-11-05T02:16:27.162Z,3.12
2022-11-05T02:19:51.449Z,2.90
2022-11-05T02:23:08.383Z,3.13
2022-11-05T02:26:32.634Z,2.62
2022-11-05T02:29:55.943Z,2.60
2022-11-05T02:33:01.383Z,2.95
2022-11-05T02:36:13.507Z,2.97
2022-11-05T02:39:15.972Z,3.10
2022-11-05T02:42:33.675Z,3.05
2022-11-05T02:45:42.235Z,2.55
2022-11-05T02:48:52.124Z,2.65
2022-11-05T02:52:01.300Z,2.60
2022-11-05T02:55:22.799Z,2.70
2022-11-05T02:58:28.875Z,2.60
2022-11-05T03:01:31.322Z,2.75
2022-11-05T03:04:33.965Z,2.78
2022-11-05T03:07:53.323Z,2.70
2022-11-05T03:11:29.834Z,2.97
2022-11-05T03:14:58.529Z,2.67
2022-11-05T03:18:04.021Z,2.80
2022-11-05T03:21:21.892Z,2.72
2022-11-05T03:24:30.301Z,2.67
2022-11-05T03:27:37.101Z,2.50
2022-11-05T03:30:42.670Z,2.60
2022-11-05T03:33:46.709Z,2.50
2022-11-05T03:36:54.616Z,2.58
2022-11-05T03:40:00.432Z,2.85
2022-11-05T03:43:07.392Z,2.20
2022-11-05T03:46:15.008Z,2.12
2022-11-05T03:49:25.697Z,2.22
2022-11-05T03:52:33.299Z,2.70
2022-11-05T03:55:59.328Z,2.83
2022-11-05T03:59:02.896Z,3.10
2022-11-05T04:02:05.700Z,2.60
2022-11-05T04:05:08.410Z,2.53
2022-11-05T04:08:29.358Z,3.08
2022-11-05T04:11:50.789Z,3.00
2022-11-05T04:14:52.978Z,2.70
2022-11-05T04:17:58.785Z,3.33
2022-11-05T04:21:19.845Z,3.00
2022-11-05T04:24:22.326Z,3.40
2022-11-05T04:27:24.642Z,3.20
2022-11-05T04:30:27.437Z,3.40
2022-11-05T04:33:29.695Z,3.58
2022-11-05T04:36:32.352Z,3.10
2022-11-05T04:39:34.537Z,3.33
2022-11-05T04:42:37.088Z,3.53
2022-11-05T04:45:39.356Z,3.77
2022-11-05T04:48:41.925Z,3.92
2022-11-05T04:51:44.144Z,3.35
2022-11-05T04:54:46.670Z,3.95
2022-11-05T04:57:49.898Z,4.07
2022-11-05T05:00:52.605Z,3.77
2022-11-05T05:03:55.140Z,4.20
2022-11-05T05:06:57.671Z,4.28
2022-11-05T05:10:01.641Z,4.15
2022-11-05T05:13:04.101Z,4.25
2022-11-05T05:16:08.278Z,4.83
2022-11-05T05:19:10.754Z,3.78
2022-11-05T05:22:12.970Z,3.87
2022-11-05T05:25:15.534Z,3.90
2022-11-05T05:28:17.725Z,3.60
2022-11-05T05:31:21.002Z,4.10
2022-11-05T05:34:23.192Z,4.22
2022-11-05T05:37:25.751Z,4.28
2022-11-05T05:40:27.995Z,3.90
2022-11-05T05:43:32.111Z,3.87
2022-11-05T05:46:34.465Z,4.10
2022-11-05T05:49:36.982Z,4.18
2022-11-05T05:52:39.168Z,4.57
2022-11-05T05:55:41.635Z,4.50
2022-11-05T05:58:43.867Z,3.95
2022-11-05T06:01:46.539Z,3.87
2022-11-05T06:04:49.099Z,3.78
2022-11-05T06:07:57.870Z,4.10
2022-11-05T06:11:01.644Z,3.58
2022-11-05T06:14:03.953Z,4.15
2022-11-05T06:17:09.685Z,3.93
2022-11-05T06:20:15.040Z,4.85
2022-11-05T06:23:17.508Z,3.70
2022-11-05T06:26:20.105Z,3.28
2022-11-05T06:29:22.589Z,3.20
2022-11-05T06:32:24.885Z,3.70
2022-11-05T06:35:27.319Z,3.00
2022-11-05T06:38:32.876Z,2.60
2022-11-05T06:41:45.610Z,2.95
2022-11-05T06:44:57.609Z,2.17
2022-11-05T06:48:00.132Z,3.30
2022-11-05T06:51:03.477Z,3.05
2022-11-05T06:54:06.267Z,2.75
2022-11-05T06:57:09.980Z,2.78
2022-11-05T07:00:12.834Z,2.70
2022-11-05T07:03:15.317Z,3.53
2022-11-05T07:06:17.994Z,2.95
2022-11-05T07:09:20.253Z,3.50
2022-11-05T07:12:22.703Z,2.45
2022-11-05T07:15:25.023Z,2.92
2022-11-05T07:18:27.533Z,2.67
2022-11-05T07:21:29.751Z,3.20
2022-11-05T07:24:32.321Z,2.78
2022-11-05T07:27:39.538Z,2.37
2022-11-05T07:30:42.038Z,3.08
2022-11-05T07:33:44.271Z,2.73
2022-11-05T07:36:46.852Z,2.85
2022-11-05T07:39:49.037Z,3.65
2022-11-05T07:42:53.616Z,3.25
2022-11-05T07:45:55.874Z,4.20
2022-11-05T07:48:58.414Z,3.50
2022-11-05T07:52:00.604Z,3.30
2022-11-05T07:55:03.232Z,3.33
2022-11-05T07:58:05.487Z,2.70
2022-11-05T08:01:08.074Z,6.82
2022-11-05T08:04:10.657Z,3.27
2022-11-05T08:07:12.866Z,4.18
2022-11-05T08:10:15.391Z,2.35
2022-11-05T08:13:18.366Z,2.40
2022-11-05T08:16:20.839Z,3.05
2022-11-05T08:19:23.143Z,2.97
2022-11-05T08:22:25.592Z,2.87
2022-11-05T08:25:28.294Z,3.00
2022-11-05T08:28:31.073Z,2.40
2022-11-05T08:31:33.371Z,2.42
2022-11-05T08:34:35.910Z,2.53
2022-11-05T08:37:38.129Z,2.50
2022-11-05T08:40:41.912Z,2.75
2022-11-05T08:43:44.152Z,2.53
2022-11-05T08:46:46.708Z,2.40
2022-11-05T08:49:49.145Z,2.80
2022-11-05T08:52:51.664Z,2.92
2022-11-05T08:55:58.298Z,3.78
2022-11-05T08:59:01.110Z,2.90
2022-11-05T09:02:03.489Z,2.50
2022-11-05T09:05:06.399Z,2.67
2022-11-05T09:08:11.398Z,2.95
2022-11-05T09:11:14.487Z,3.03
2022-11-05T09:14:16.678Z,3.17
2022-11-05T09:17:21.541Z,3.53
2022-11-05T09:20:25.168Z,2.60
2022-11-05T09:23:27.660Z,2.70
2022-11-05T09:26:30.021Z,3.00
2022-11-05T09:29:32.542Z,3.12
2022-11-05T09:32:34.818Z,2.75
2022-11-05T09:35:41.631Z,2.70
2022-11-05T09:38:43.804Z,2.85
2022-11-05T09:41:46.954Z,3.10
2022-11-05T09:44:59.502Z,3.42
2022-11-05T09:48:10.719Z,3.72
2022-11-05T09:51:20.834Z,2.83
2022-11-05T09:54:33.503Z,4.47
2022-11-05T09:57:48.286Z,3.12
2022-11-05T10:00:52.870Z,3.37
2022-11-05T10:03:59.410Z,3.50
2022-11-05T10:07:05.973Z,3.70
2022-11-05T10:10:23.188Z,3.80
2022-11-05T10:13:35.269Z,3.85
2022-11-05T10:16:42.352Z,2.70
2022-11-05T10:19:51.028Z,3.20
2022-11-05T10:23:00.602Z,3.53
2022-11-05T10:26:08.173Z,3.65
2022-11-05T10:29:16.051Z,3.70
2022-11-05T10:32:37.469Z,3.60
2022-11-05T10:35:55.711Z,3.67
2022-11-05T10:39:10.240Z,4.17
2022-11-05T10:42:24.525Z,3.30
2022-11-05T10:45:41.216Z,4.05
2022-11-05T10:49:22.330Z,3.72
2022-11-05T10:52:36.646Z,3.55
2022-11-05T10:55:44.252Z,3.87
2022-11-05T10:58:55.367Z,4.12
2022-11-05T11:02:15.103Z,3.60
2022-11-05T11:05:39.243Z,3.70
2022-11-05T11:08:45.283Z,4.00
2022-11-05T11:11:56.034Z,3.70
2022-11-05T11:15:16.053Z,4.15
2022-11-05T11:18:27.912Z,3.80
2022-11-05T11:21:32.386Z,3.40
2022-11-05T11:24:40.129Z,3.72
2022-11-05T11:27:42.786Z,3.60
2022-11-05T11:31:01.204Z,4.25
2022-11-05T11:34:11.019Z,3.97
2022-11-05T11:37:27.154Z,3.95
2022-11-05T11:40:31.505Z,3.80
2022-11-05T11:43:37.535Z,4.10
2022-11-05T11:46:40.637Z,3.70
2022-11-05T11:49:47.277Z,3.53
2022-11-05T11:52:49.793Z,2.70
2022-11-05T11:55:55.173Z,3.50
2022-11-05T11:59:02.923Z,4.00
2022-11-05T12:02:50.114Z,3.33
2022-11-05T12:06:23.758Z,3.53
2022-11-05T12:09:31.840Z,3.80
2022-11-05T12:13:08.703Z,3.83
2022-11-05T12:16:22.250Z,3.23
2022-11-05T12:19:46.887Z,4.05
2022-11-05T12:23:13.757Z,3.30
2022-11-05T12:26:41.813Z,3.10
2022-11-05T12:30:20.711Z,3.17
2022-11-05T12:33:42.457Z,3.20
2022-11-05T12:37:10.453Z,3.20
2022-11-05T12:40:37.918Z,3.00
2022-11-05T12:44:17.042Z,2.47
2022-11-05T12:47:47.618Z,2.70
2022-11-05T12:51:09.657Z,2.33
2022-11-05T12:54:41.916Z,2.75
2022-11-05T12:57:47.726Z,2.00
2022-11-05T13:00:57.194Z,2.40
2022-11-05T13:04:06.654Z,2.65
2022-11-05T13:07:13.737Z,2.23
2022-11-05T13:10:39.059Z,2.40
2022-11-05T13:13:45.027Z,2.25
2022-11-05T13:16:56.492Z,2.35
2022-11-05T13:20:11.702Z,2.40
2022-11-05T13:23:26.102Z,2.30
2022-11-05T13:26:51.636Z,3.03
2022-11-05T13:30:01.842Z,3.03
2022-11-05T13:33:12.313Z,2.00
2022-11-05T13:36:39.910Z,2.28
2022-11-05T13:39:54.279Z,2.20
2022-11-05T13:43:28.121Z,1.83
2022-11-05T13:47:02.143Z,2.03
2022-11-05T13:50:41.179Z,1.42
2022-11-05T13:54:04.874Z,2.10
2022-11-05T13:57:29.834Z,2.23
2022-11-05T14:00:42.395Z,1.92
2022-11-05T14:03:48.394Z,1.85
2022-11-05T14:06:50.936Z,2.00
2022-11-05T14:10:00.791Z,1.98
2022-11-05T14:13:25.893Z,2.30
2022-11-05T14:16:48.152Z,2.47
2022-11-05T14:20:05.329Z,2.03
2022-11-05T14:23:23.269Z,2.28
2022-11-05T14:26:32.136Z,2.15
2022-11-05T14:29:46.142Z,2.07
2022-11-05T14:32:50.985Z,1.75
2022-11-05T14:36:22.268Z,1.85
2022-11-05T14:39:32.326Z,1.98
2022-11-05T14:42:34.954Z,2.55
2022-11-05T14:45:56.950Z,2.47
2022-11-05T14:49:09.073Z,2.75
2022-11-05T14:52:17.171Z,2.30
2022-11-05T14:55:41.225Z,1.75
2022-11-05T14:58:45.289Z,2.00
2022-11-05T15:01:47.786Z,5.27
2022-11-05T15:04:52.770Z,2.12
2022-11-05T15:07:59.180Z,2.10
2022-11-05T15:11:37.268Z,2.33
2022-11-05T15:14:54.056Z,2.03
2022-11-05T15:18:30.555Z,2.70
2022-11-05T15:21:36.386Z,3.00
2022-11-05T15:24:41.625Z,4.05
2022-11-05T15:27:56.539Z,2.47
2022-11-05T15:31:14.140Z,2.53
2022-11-05T15:34:31.033Z,2.70
2022-11-05T15:37:33.922Z,2.65
2022-11-05T15:40:36.436Z,3.03
2022-11-05T15:43:48.070Z,2.80
2022-11-05T15:47:12.178Z,2.78
2022-11-05T15:50:16.063Z,2.63
2022-11-05T15:53:47.464Z,2.10
2022-11-05T15:56:54.676Z,2.35
2022-11-05T15:59:57.309Z,3.20
2022-11-05T16:03:04.816Z,3.50
2022-11-05T16:06:09.564Z,2.40
2022-11-05T16:09:40.647Z,2.37
2022-11-05T16:12:43.176Z,2.58
2022-11-05T16:15:54.396Z,2.92
2022-11-05T16:18:57.044Z,3.37
2022-11-05T16:22:03.757Z,2.93
2022-11-05T16:25:30.256Z,2.90
2022-11-05T16:28:32.571Z,2.35
2022-11-05T16:31:35.813Z,2.67
2022-11-05T16:34:41.803Z,2.70
2022-11-05T16:37:49.193Z,2.70
2022-11-05T16:40:54.062Z,2.42
2022-11-05T16:43:59.608Z,2.67
2022-11-05T16:47:01.953Z,2.58
2022-11-05T16:50:18.473Z,2.12
2022-11-05T16:53:20.810Z,2.83
2022-11-05T16:56:23.553Z,2.75
2022-11-05T16:59:25.853Z,2.60
2022-11-05T17:02:28.813Z,2.70
2022-11-05T17:05:31.426Z,2.92
2022-11-05T17:08:33.972Z,2.80
2022-11-05T17:11:36.272Z,2.70
2022-11-05T17:14:39.220Z,2.67
2022-11-05T17:17:41.407Z,2.62
2022-11-05T17:20:52.060Z,2.42
2022-11-05T17:23:54.362Z,2.60
2022-11-05T17:26:56.849Z,2.40
2022-11-05T17:29:59.099Z,2.78
2022-11-05T17:33:01.808Z,3.12
2022-11-05T17:36:14.353Z,2.40
2022-11-05T17:39:17.098Z,2.83
2022-11-05T17:42:19.318Z,2.80
2022-11-05T17:45:21.845Z,3.20
2022-11-05T17:48:24.089Z,2.40
2022-11-05T17:51:26.670Z,3.97
2022-11-05T17:54:28.923Z,3.00
2022-11-05T17:57:31.561Z,2.50
2022-11-05T18:00:33.858Z,2.30
2022-11-05T18:03:36.334Z,2.92
2022-11-05T18:06:39.812Z,2.55
2022-11-05T18:09:42.341Z,4.77
2022-11-05T18:12:44.814Z,2.90
2022-11-05T18:15:49.841Z,2.67
2022-11-05T18:18:52.180Z,2.35
2022-11-05T18:21:55.613Z,2.62
2022-11-05T18:24:57.876Z,2.53
2022-11-05T18:28:01.592Z,2.20
2022-11-05T18:31:08.274Z,2.35
2022-11-05T18:34:11.052Z,2.28
2022-11-05T18:37:13.316Z,2.40
2022-11-05T18:40:15.833Z,2.27
2022-11-05T18:43:18.097Z,2.47
2022-11-05T18:46:51.236Z,2.40
2022-11-05T18:49:42.906Z,2.70
2022-11-05T18:52:45.462Z,2.67
2022-11-05T18:55:47.751Z,2.70
2022-11-05T18:59:03.313Z,2.87
2022-11-05T19:02:15.247Z,5.47
2022-11-05T19:05:33.445Z,2.90
2022-11-05T19:08:35.881Z,2.42
2022-11-05T19:11:39.665Z,2.60
2022-11-05T19:14:44.564Z,2.58
2022-11-05T19:17:47.071Z,2.92
2022-11-05T19:20:49.334Z,2.78
2022-11-05T19:23:52.782Z,2.87
2022-11-05T19:26:54.994Z,3.07
2022-11-05T19:29:57.552Z,2.70
2022-11-05T19:32:59.786Z,2.60
2022-11-05T19:36:06.113Z,2.90
2022-11-05T19:39:11.020Z,2.67
2022-11-05T19:42:13.717Z,2.90
2022-11-05T19:45:38.766Z,2.50
2022-11-05T19:48:39.442Z,2.25
2022-11-05T19:51:41.730Z,2.78
2022-11-05T19:54:46.016Z,2.40
2022-11-05T19:57:48.291Z,2.30
2022-11-05T20:00:50.794Z,1.87
2022-11-05T20:03:54.808Z,2.50
2022-11-05T20:06:57.560Z,2.20
2022-11-05T20:10:00.075Z,2.40
2022-11-05T20:13:02.318Z,2.60
2022-11-05T20:16:05.604Z,2.35
2022-11-05T20:19:11.044Z,2.00
2022-11-05T20:22:13.591Z,2.33
2022-11-05T20:25:16.020Z,2.08
2022-11-05T20:28:18.541Z,1.93
2022-11-05T20:31:21.173Z,2.17
2022-11-05T20:34:24.409Z,2.12
2022-11-05T20:37:26.681Z,2.30
2022-11-05T20:40:29.263Z,3.28
2022-11-05T20:43:31.531Z,2.10
2022-11-05T20:46:34.178Z,2.47
2022-11-05T20:49:36.395Z,2.12
2022-11-05T20:52:39.073Z,2.37
2022-11-05T20:55:46.027Z,2.22
2022-11-05T20:58:49.210Z,2.40
2022-11-05T21:01:52.027Z,2.28
2022-11-05T21:04:54.698Z,2.33
2022-11-05T21:07:57.407Z,2.30
2022-11-05T21:11:00.647Z,2.60
2022-11-05T21:14:02.841Z,2.53
2022-11-05T21:17:09.745Z,2.40
2022-11-05T21:20:12.684Z,2.62
2022-11-05T21:23:16.218Z,2.40
2022-11-05T21:26:18.673Z,2.20
2022-11-05T21:29:21.221Z,2.03
2022-11-05T21:32:23.499Z,2.10
2022-11-05T21:35:26.082Z,2.40
2022-11-05T21:38:28.319Z,2.65
2022-11-05T21:41:30.920Z,2.30
2022-11-05T21:44:33.153Z,2.70
2022-11-05T21:47:35.600Z,2.40
2022-11-05T21:51:00.307Z,2.45
2022-11-05T21:54:21.310Z,2.35
2022-11-05T21:57:42.161Z,2.30
2022-11-05T22:00:44.707Z,2.20
2022-11-05T22:03:47.185Z,2.60
2022-11-05T22:06:49.387Z,2.78
2022-11-05T22:09:52.257Z,3.28
2022-11-05T22:12:54.539Z,2.60
2022-11-05T22:15:57.241Z,2.93
2022-11-05T22:18:59.854Z,2.87
2022-11-05T22:22:04.215Z,3.67
2022-11-05T22:25:06.708Z,2.90
2022-11-05T22:28:09.430Z,3.12
2022-11-05T22:31:16.303Z,2.50
2022-11-05T22:34:18.868Z,2.72
2022-11-05T22:37:21.105Z,2.30
2022-11-05T22:40:24.267Z,2.65
2022-11-05T22:43:26.643Z,2.97
2022-11-05T22:46:29.885Z,2.27
2022-11-05T22:49:33.103Z,2.80
2022-11-05T22:52:35.610Z,2.78
2022-11-05T22:55:40.625Z,3.00
2022-11-05T22:58:43.143Z,2.60
2022-11-05T23:01:46.464Z,2.47
2022-11-05T23:04:52.070Z,2.83
2022-11-05T23:08:13.178Z,2.85
2022-11-05T23:11:38.680Z,2.30
2022-11-05T23:14:40.958Z,2.30
2022-11-05T23:18:01.863Z,2.50
2022-11-05T23:21:23.268Z,3.12
2022-11-05T23:24:25.844Z,2.92
2022-11-05T23:27:30.029Z,3.37
2022-11-05T23:30:32.750Z,2.67
2022-11-05T23:33:35.645Z,2.83
2022-11-05T23:36:56.839Z,3.08
2022-11-05T23:39:59.083Z,3.05
2022-11-05T23:43:19.881Z,2.90
2022-11-05T23:46:40.764Z,3.15
2022-11-05T23:49:43.274Z,2.70
2022-11-05T23:52:45.520Z,2.90
2022-11-05T23:55:48.809Z,3.10
2022-11-05T23:58:51.100Z,3.10
